createdAt,value
2023-05-04T00:01:21.311Z,70.95
2023-05-04T00:03:50.323Z,70.64
2023-05-04T00:06:18.012Z,70.56
2023-05-04T00:08:45.502Z,70.88
2023-05-04T00:11:13.057Z,70.58
2023-05-04T00:13:40.549Z,69.55
2023-05-04T00:16:10.605Z,69.66
2023-05-04T00:18:38.636Z,70.54
2023-05-04T00:21:08.009Z,70.22
2023-05-04T00:23:35.629Z,69.53
2023-05-04T00:26:03.156Z,70.27
2023-05-04T00:28:30.658Z,70.16
2023-05-04T00:30:58.127Z,70.72
2023-05-04T00:33:25.647Z,71.01
2023-05-04T00:35:53.132Z,70.55
2023-05-04T00:38:22.013Z,70.05
2023-05-04T00:40:50.135Z,70.10
2023-05-04T00:43:17.605Z,69.82
2023-05-04T00:45:45.167Z,70.85
2023-05-04T00:48:13.254Z,70.54
2023-05-04T00:50:40.931Z,70.51
2023-05-04T00:53:10.126Z,72.13
2023-05-04T00:55:40.625Z,71.39
2023-05-04T00:58:08.929Z,72.06
2023-05-04T01:00:36.913Z,71.39
2023-05-04T01:03:04.773Z,70.81
2023-05-04T01:05:36.281Z,71.01
2023-05-04T01:08:08.682Z,71.35
2023-05-04T01:10:43.414Z,70.85
2023-05-04T01:13:13.534Z,71.67
2023-05-04T01:15:43.162Z,72.11
2023-05-04T01:18:10.968Z,72.68
2023-05-04T01:20:38.443Z,72.57
2023-05-04T01:23:07.339Z,71.73
2023-05-04T01:25:39.032Z,71.26
2023-05-04T01:28:09.580Z,72.65
2023-05-04T01:30:39.104Z,71.81
2023-05-04T01:33:07.334Z,72.81
2023-05-04T01:35:37.567Z,72.75
2023-05-04T01:38:06.533Z,73.02
2023-05-04T01:40:34.002Z,73.37
2023-05-04T01:43:01.493Z,73.23
2023-05-04T01:45:29.176Z,73.00
2023-05-04T01:47:56.724Z,72.28
2023-05-04T01:50:24.295Z,74.31
2023-05-04T01:52:51.784Z,73.37
2023-05-04T01:55:20.729Z,73.28
2023-05-04T01:57:48.221Z,72.89
2023-05-04T02:00:16.374Z,73.23
2023-05-04T02:02:44.021Z,73.22
2023-05-04T02:05:15.479Z,73.42
2023-05-04T02:07:43.300Z,73.60
2023-05-04T02:10:11.389Z,73.73
2023-05-04T02:12:41.617Z,73.69
2023-05-04T02:15:09.599Z,73.99
2023-05-04T02:17:37.147Z,74.10
2023-05-04T02:20:06.039Z,74.10
2023-05-04T02:22:33.984Z,74.33
2023-05-04T02:25:01.520Z,73.85
2023-05-04T02:27:29.023Z,73.44
2023-05-04T02:29:59.101Z,74.13
2023-05-04T02:32:27.147Z,74.27
2023-05-04T02:34:54.677Z,74.26
2023-05-04T02:37:22.371Z,74.14
2023-05-04T02:39:49.915Z,74.66
2023-05-04T02:42:17.658Z,74.53
2023-05-04T02:44:45.255Z,74.51
2023-05-04T02:47:14.214Z,74.79
2023-05-04T02:49:41.740Z,74.59
2023-05-04T02:52:09.198Z,74.56
2023-05-04T02:54:38.467Z,75.05
2023-05-04T02:57:06.450Z,74.77
2023-05-04T02:59:34.847Z,74.48
2023-05-04T03:02:02.354Z,74.16
2023-05-04T03:04:31.296Z,74.27
2023-05-04T03:06:58.834Z,74.29
2023-05-04T03:09:26.336Z,74.74
2023-05-04T03:11:53.840Z,74.59
2023-05-04T03:14:21.398Z,74.40
2023-05-04T03:16:49.002Z,74.50
2023-05-04T03:19:18.896Z,75.10
2023-05-04T03:21:48.299Z,75.45
2023-05-04T03:24:18.622Z,75.58
2023-05-04T03:26:47.157Z,75.86
2023-05-04T03:29:15.085Z,75.90
2023-05-04T03:31:42.769Z,75.27
2023-05-04T03:34:14.791Z,75.84
2023-05-04T03:36:42.615Z,75.98
2023-05-04T03:39:11.497Z,75.89
2023-05-04T03:41:39.017Z,75.15
2023-05-04T03:44:06.494Z,75.46
2023-05-04T03:46:35.736Z,75.28
2023-05-04T03:49:03.402Z,74.65
2023-05-04T03:51:31.306Z,75.03
2023-05-04T03:53:58.834Z,75.43
2023-05-04T03:56:27.645Z,75.27
2023-05-04T03:58:55.320Z,75.47
2023-05-04T04:01:27.409Z,75.81
2023-05-04T04:03:54.981Z,76.82
2023-05-04T04:06:22.799Z,76.17
2023-05-04T04:08:50.449Z,76.35
2023-05-04T04:11:17.995Z,75.94
2023-05-04T04:13:46.818Z,75.68
2023-05-04T04:16:14.285Z,75.35
2023-05-04T04:18:41.803Z,75.20
2023-05-04T04:21:10.308Z,76.28
2023-05-04T04:23:37.916Z,75.48
2023-05-04T04:26:06.155Z,75.25
2023-05-04T04:28:33.673Z,76.23
2023-05-04T04:31:03.296Z,76.75
2023-05-04T04:33:31.066Z,77.36
2023-05-04T04:35:58.591Z,76.38
2023-05-04T04:38:26.260Z,76.74
2023-05-04T04:40:53.741Z,76.62
2023-05-04T04:43:21.568Z,76.45
2023-05-04T04:45:49.171Z,76.29
2023-05-04T04:48:21.348Z,76.15
2023-05-04T04:50:49.023Z,76.21
2023-05-04T04:53:16.744Z,76.52
2023-05-04T04:55:44.212Z,76.37
2023-05-04T04:58:11.835Z,75.85
2023-05-04T05:00:39.416Z,75.85
2023-05-04T05:03:06.968Z,75.71
2023-05-04T05:05:35.819Z,75.54
2023-05-04T05:08:03.337Z,75.07
2023-05-04T05:10:30.870Z,75.38
2023-05-04T05:12:58.390Z,75.65
2023-05-04T05:15:26.183Z,74.79
2023-05-04T05:17:53.759Z,74.88
2023-05-04T05:20:21.361Z,75.10
2023-05-04T05:22:51.543Z,75.08
2023-05-04T05:25:19.627Z,75.00
2023-05-04T05:27:47.123Z,74.41
2023-05-04T05:30:14.793Z,74.29
2023-05-04T05:32:42.833Z,74.61
2023-05-04T05:35:10.871Z,74.39
2023-05-04T05:37:38.382Z,74.71
2023-05-04T05:40:08.726Z,74.02
2023-05-04T05:42:36.625Z,74.12
2023-05-04T05:45:04.666Z,73.97
2023-05-04T05:47:32.335Z,73.48
2023-05-04T05:49:59.887Z,73.06
2023-05-04T05:52:27.383Z,72.39
2023-05-04T05:54:54.995Z,72.19
2023-05-04T05:57:23.821Z,71.62
2023-05-04T05:59:51.419Z,71.41
2023-05-04T06:02:19.084Z,71.30
2023-05-04T06:04:46.757Z,71.31
2023-05-04T06:07:14.517Z,70.80
2023-05-04T06:09:42.070Z,70.29
2023-05-04T06:12:13.392Z,70.01
2023-05-04T06:14:42.257Z,69.73
2023-05-04T06:17:09.880Z,69.76
2023-05-04T06:19:38.405Z,69.64
2023-05-04T06:22:06.183Z,69.13
2023-05-04T06:24:33.815Z,68.63
2023-05-04T06:27:01.806Z,68.19
2023-05-04T06:29:29.358Z,68.05
2023-05-04T06:31:58.256Z,67.99
2023-05-04T06:34:25.808Z,67.48
2023-05-04T06:36:53.265Z,67.15
2023-05-04T06:39:20.813Z,66.95
2023-05-04T06:41:48.337Z,66.75
2023-05-04T06:44:18.932Z,66.34
2023-05-04T06:46:46.435Z,66.31
2023-05-04T06:49:15.225Z,65.49
2023-05-04T06:51:42.738Z,65.11
2023-05-04T06:54:10.220Z,64.89
2023-05-04T06:56:39.517Z,64.76
2023-05-04T06:59:08.202Z,64.15
2023-05-04T07:01:35.803Z,62.87
2023-05-04T07:04:03.412Z,62.04
2023-05-04T07:06:32.366Z,61.03
2023-05-04T07:09:00.150Z,60.98
2023-05-04T07:11:28.659Z,60.77
2023-05-04T07:13:56.225Z,60.00
2023-05-04T07:16:23.744Z,59.01
2023-05-04T07:18:51.358Z,58.93
2023-05-04T07:23:50.609Z,58.07
2023-05-04T07:26:18.111Z,57.09
2023-05-04T07:28:45.628Z,55.73
2023-05-04T07:31:14.394Z,53.97
2023-05-04T07:33:42.170Z,53.28
2023-05-04T07:36:09.773Z,52.57
2023-05-04T07:38:37.630Z,52.44
2023-05-04T07:41:07.190Z,51.77
2023-05-04T07:43:34.713Z,50.29
2023-05-04T07:46:03.162Z,49.14
2023-05-04T07:48:30.740Z,48.34
2023-05-04T07:50:58.227Z,47.62
2023-05-04T07:53:26.736Z,47.60
2023-05-04T07:55:57.211Z,47.26
2023-05-04T07:58:26.435Z,47.50
2023-05-04T08:00:53.945Z,47.43
2023-05-04T08:03:21.707Z,46.95
2023-05-04T08:05:49.228Z,46.78
2023-05-04T08:08:16.776Z,46.66
2023-05-04T08:10:44.298Z,46.75
2023-05-04T08:13:11.969Z,45.74
2023-05-04T08:15:41.271Z,45.08
2023-05-04T08:18:08.754Z,45.67
2023-05-04T08:20:36.543Z,44.92
2023-05-04T08:23:04.904Z,44.34
2023-05-04T08:25:32.434Z,44.15
2023-05-04T08:27:59.888Z,44.36
2023-05-04T08:30:27.727Z,44.75
2023-05-04T08:32:56.755Z,43.40
2023-05-04T08:35:26.020Z,43.16
2023-05-04T08:37:53.506Z,42.83
2023-05-04T08:40:21.846Z,42.97
2023-05-04T08:42:50.613Z,43.28
2023-05-04T08:45:18.344Z,42.25
2023-05-04T08:47:46.384Z,42.14
2023-05-04T08:50:15.395Z,41.35
2023-05-04T08:52:46.194Z,40.52
2023-05-04T08:55:14.988Z,39.45
2023-05-04T08:57:44.222Z,39.29
2023-05-04T09:00:13.400Z,39.05
2023-05-04T09:02:41.499Z,39.25
2023-05-04T09:05:11.474Z,39.57
2023-05-04T09:07:40.324Z,39.23
2023-05-04T09:10:09.106Z,39.14
2023-05-04T09:12:37.858Z,39.33
2023-05-04T09:15:16.551Z,39.68
2023-05-04T09:17:57.018Z,38.40
2023-05-04T09:20:25.673Z,37.75
2023-05-04T09:23:07.833Z,38.02
2023-05-04T09:25:35.800Z,37.74
2023-05-04T09:28:03.287Z,37.63
2023-05-04T09:30:30.762Z,37.36
2023-05-04T09:32:58.298Z,37.06
2023-05-04T09:35:33.627Z,37.27
2023-05-04T09:38:02.208Z,37.10
2023-05-04T09:40:38.742Z,35.52
2023-05-04T09:43:06.615Z,35.39
2023-05-04T09:45:41.221Z,35.27
2023-05-04T09:48:19.110Z,34.34
2023-05-04T09:50:51.081Z,35.75
2023-05-04T09:53:21.729Z,35.14
2023-05-04T09:55:59.969Z,34.27
2023-05-04T09:58:30.595Z,33.69
2023-05-04T10:00:59.033Z,34.85
2023-05-04T10:03:27.627Z,34.07
2023-05-04T10:05:55.371Z,35.43
2023-05-04T10:08:23.538Z,34.75
2023-05-04T10:10:53.512Z,33.53
2023-05-04T10:13:21.132Z,33.84
2023-05-04T10:16:00.894Z,34.14
2023-05-04T10:18:39.740Z,34.02
2023-05-04T10:21:30.518Z,33.28
2023-05-04T10:24:20.451Z,33.88
2023-05-04T10:26:59.572Z,32.74
2023-05-04T10:29:29.314Z,32.78
2023-05-04T10:31:57.778Z,31.46
2023-05-04T10:34:26.812Z,30.52
2023-05-04T10:36:54.391Z,30.60
2023-05-04T10:39:22.985Z,30.43
2023-05-04T10:42:03.903Z,30.90
2023-05-04T10:44:32.748Z,30.33
2023-05-04T10:47:01.894Z,30.08
2023-05-04T10:49:30.394Z,30.13
2023-05-04T10:52:06.916Z,30.01
2023-05-04T10:54:36.077Z,30.60
2023-05-04T10:57:07.488Z,30.18
2023-05-04T10:59:36.722Z,29.77
2023-05-04T11:02:05.335Z,29.42
2023-05-04T11:04:33.426Z,29.78
2023-05-04T11:07:02.679Z,31.75
2023-05-04T11:09:37.716Z,31.80
2023-05-04T11:12:07.700Z,30.27
2023-05-04T11:14:37.982Z,28.25
2023-05-04T11:17:23.945Z,27.70
2023-05-04T11:19:54.725Z,27.64
2023-05-04T11:22:22.369Z,26.77
2023-05-04T11:24:49.983Z,26.17
2023-05-04T11:27:29.112Z,25.90
2023-05-04T11:29:57.486Z,25.69
2023-05-04T11:32:35.043Z,26.59
2023-05-04T11:35:04.092Z,25.94
2023-05-04T11:37:32.620Z,26.13
2023-05-04T11:42:29.213Z,26.36
2023-05-04T11:44:56.941Z,26.02
2023-05-04T11:47:26.398Z,26.64
2023-05-04T11:49:54.205Z,26.07
2023-05-04T11:52:24.211Z,26.84
2023-05-04T11:54:56.893Z,26.83
2023-05-04T11:57:24.830Z,27.70
2023-05-04T11:59:53.698Z,27.55
2023-05-04T12:02:21.311Z,27.17
2023-05-04T12:04:48.850Z,27.00
2023-05-04T12:07:16.611Z,26.53
2023-05-04T12:09:47.986Z,26.40
2023-05-04T12:12:16.430Z,27.13
2023-05-04T12:14:50.956Z,26.89
2023-05-04T12:17:20.358Z,26.40
2023-05-04T12:19:48.944Z,27.03
2023-05-04T12:22:16.818Z,27.28
2023-05-04T12:24:44.379Z,26.37
2023-05-04T12:27:15.179Z,26.89
2023-05-04T12:29:42.673Z,27.48
2023-05-04T12:32:10.302Z,27.08
2023-05-04T12:34:39.304Z,26.83
2023-05-04T12:37:07.004Z,27.30
2023-05-04T12:39:34.517Z,27.55
2023-05-04T12:42:02.177Z,26.70
2023-05-04T12:44:29.652Z,27.01
2023-05-04T12:46:57.360Z,26.85
2023-05-04T12:49:25.075Z,26.56
2023-05-04T12:51:53.878Z,26.47
2023-05-04T12:54:21.348Z,26.65
2023-05-04T12:56:48.853Z,26.10
2023-05-04T12:59:16.415Z,26.26
2023-05-04T13:01:44.078Z,26.74
2023-05-04T13:04:11.588Z,27.06
2023-05-04T13:06:39.240Z,26.52
2023-05-04T13:09:08.674Z,26.46
2023-05-04T13:11:36.222Z,26.51
2023-05-04T13:14:03.720Z,26.60
2023-05-04T13:16:31.673Z,26.57
2023-05-04T13:18:59.367Z,26.16
2023-05-04T13:21:26.903Z,26.62
2023-05-04T13:23:54.451Z,26.63
2023-05-04T13:26:23.285Z,26.80
2023-05-04T13:28:51.478Z,27.57
2023-05-04T13:31:19.171Z,27.39
2023-05-04T13:33:47.372Z,27.23
2023-05-04T13:36:14.957Z,27.33
2023-05-04T13:38:43.949Z,27.84
2023-05-04T13:41:11.549Z,27.52
2023-05-04T13:43:40.369Z,28.50
2023-05-04T13:46:07.903Z,28.09
2023-05-04T13:48:35.587Z,28.16
2023-05-04T13:51:03.584Z,28.33
2023-05-04T13:53:31.091Z,28.25
2023-05-04T13:55:58.596Z,28.99
2023-05-04T13:58:26.075Z,28.77
2023-05-04T14:00:57.749Z,27.98
2023-05-04T14:03:25.778Z,27.74
2023-05-04T14:05:53.763Z,27.67
2023-05-04T14:08:21.336Z,28.05
2023-05-04T14:10:49.245Z,28.31
2023-05-04T14:13:16.985Z,27.73
2023-05-04T14:15:45.447Z,27.85
2023-05-04T14:18:14.443Z,27.68
2023-05-04T14:20:42.008Z,27.51
2023-05-04T14:23:09.474Z,26.82
2023-05-04T14:25:36.968Z,26.72
2023-05-04T14:28:04.674Z,26.79
2023-05-04T14:30:33.570Z,26.86
2023-05-04T14:33:03.570Z,26.82
2023-05-04T14:35:32.811Z,26.54
2023-05-04T14:38:00.431Z,26.87
2023-05-04T14:40:27.913Z,26.60
2023-05-04T14:42:57.490Z,26.41
2023-05-04T14:45:25.008Z,26.91
2023-05-04T14:47:52.567Z,26.93
2023-05-04T14:50:21.489Z,26.47
2023-05-04T14:52:50.284Z,26.59
2023-05-04T14:55:17.786Z,26.96
2023-05-04T14:57:45.278Z,26.25
2023-05-04T15:00:14.749Z,25.48
2023-05-04T15:02:42.358Z,25.80
2023-05-04T15:05:12.569Z,25.91
2023-05-04T15:07:40.634Z,25.43
2023-05-04T15:10:11.112Z,25.23
2023-05-04T15:12:40.140Z,25.63
2023-05-04T15:15:08.580Z,26.63
2023-05-04T15:17:36.176Z,25.46
2023-05-04T15:20:05.065Z,25.24
2023-05-04T15:22:32.713Z,25.17
2023-05-04T15:25:01.552Z,24.93
2023-05-04T15:27:30.407Z,24.75
2023-05-04T15:29:57.905Z,25.31
2023-05-04T15:32:25.739Z,24.58
2023-05-04T15:35:04.398Z,23.97
2023-05-04T15:37:33.196Z,23.79
2023-05-04T15:40:04.004Z,23.43
2023-05-04T15:42:33.175Z,23.87
2023-05-04T15:45:00.683Z,24.52
2023-05-04T15:47:28.210Z,25.30
2023-05-04T15:49:55.744Z,25.81
2023-05-04T15:52:23.830Z,25.89
2023-05-04T15:54:51.330Z,26.16
2023-05-04T15:57:18.860Z,26.27
2023-05-04T15:59:49.663Z,26.24
2023-05-04T16:02:17.448Z,26.18
2023-05-04T16:04:44.978Z,26.41
2023-05-04T16:07:12.508Z,26.80
2023-05-04T16:09:40.062Z,26.99
2023-05-04T16:12:08.188Z,27.09
2023-05-04T16:14:36.017Z,26.98
2023-05-04T16:17:05.032Z,27.30
2023-05-04T16:19:32.621Z,27.11
2023-05-04T16:22:00.147Z,27.24
2023-05-04T16:24:27.633Z,27.13
2023-05-04T16:26:55.200Z,27.43
2023-05-04T16:29:23.167Z,27.53
2023-05-04T16:31:50.964Z,27.62
2023-05-04T16:34:19.840Z,28.03
2023-05-04T16:36:47.370Z,28.19
2023-05-04T16:39:16.377Z,28.47
2023-05-04T16:41:46.617Z,28.51
2023-05-04T16:44:16.892Z,28.84
2023-05-04T16:46:44.564Z,28.94
2023-05-04T16:49:14.497Z,29.09
2023-05-04T16:51:46.249Z,28.78
2023-05-04T16:54:13.759Z,28.98
2023-05-04T16:56:41.378Z,28.90
2023-05-04T16:59:09.005Z,29.55
2023-05-04T17:01:36.567Z,28.99
2023-05-04T17:04:04.272Z,28.56
2023-05-04T17:06:32.037Z,28.61
2023-05-04T17:09:00.879Z,28.28
2023-05-04T17:11:29.241Z,27.89
2023-05-04T17:13:56.891Z,27.78
2023-05-04T17:16:24.556Z,28.11
2023-05-04T17:18:52.111Z,28.34
2023-05-04T17:21:19.777Z,27.74
2023-05-04T17:23:47.427Z,27.76
2023-05-04T17:26:16.454Z,27.98
2023-05-04T17:28:43.961Z,28.07
2023-05-04T17:31:12.267Z,28.44
2023-05-04T17:33:40.026Z,28.73
2023-05-04T17:36:08.309Z,30.25
2023-05-04T17:38:35.818Z,30.90
2023-05-04T17:41:04.333Z,34.26
2023-05-04T17:43:33.551Z,36.06
2023-05-04T17:46:02.066Z,36.66
2023-05-04T17:48:31.635Z,36.40
2023-05-04T17:50:59.332Z,37.69
2023-05-04T17:53:28.138Z,37.32
2023-05-04T17:55:55.778Z,37.68
2023-05-04T17:58:23.381Z,38.50
2023-05-04T18:00:53.135Z,38.83
2023-05-04T18:03:20.959Z,38.76
2023-05-04T18:05:48.592Z,38.94
2023-05-04T18:08:16.122Z,39.69
2023-05-04T18:10:43.756Z,39.69
2023-05-04T18:13:11.429Z,40.32
2023-05-04T18:15:40.021Z,40.59
2023-05-04T18:18:09.372Z,40.78
2023-05-04T18:20:36.978Z,40.88
2023-05-04T18:23:04.519Z,40.73
2023-05-04T18:25:32.007Z,41.35
2023-05-04T18:27:59.662Z,41.57
2023-05-04T18:30:27.318Z,41.14
2023-05-04T18:32:55.022Z,40.85
2023-05-04T18:35:23.886Z,41.28
2023-05-04T18:37:51.353Z,41.59
2023-05-04T18:40:18.896Z,41.42
2023-05-04T18:42:46.388Z,41.32
2023-05-04T18:45:13.994Z,41.34
2023-05-04T18:47:41.525Z,41.45
2023-05-04T18:50:10.461Z,41.55
2023-05-04T18:52:39.327Z,42.54
2023-05-04T18:55:07.967Z,42.91
2023-05-04T18:57:35.476Z,42.29
2023-05-04T19:00:03.050Z,42.73
2023-05-04T19:02:31.545Z,43.48
2023-05-04T19:04:59.079Z,43.84
2023-05-04T19:07:26.698Z,43.10
2023-05-04T19:09:55.551Z,44.67
2023-05-04T19:12:23.839Z,45.52
2023-05-04T19:14:51.886Z,44.79
2023-05-04T19:17:19.365Z,46.71
2023-05-04T19:19:46.948Z,47.36
2023-05-04T19:22:15.627Z,46.95
2023-05-04T19:24:43.363Z,48.04
2023-05-04T19:27:12.375Z,48.19
2023-05-04T19:29:39.943Z,48.05
2023-05-04T19:32:22.915Z,49.90
2023-05-04T19:34:52.100Z,50.41
2023-05-04T19:37:19.594Z,49.22
2023-05-04T19:39:47.434Z,50.58
2023-05-04T19:42:16.520Z,51.09
2023-05-04T19:44:44.040Z,51.36
2023-05-04T19:47:11.654Z,50.36
2023-05-04T19:49:43.947Z,51.67
2023-05-04T19:52:11.436Z,51.65
2023-05-04T19:54:44.115Z,51.71
2023-05-04T19:57:13.256Z,51.20
2023-05-04T19:59:42.956Z,52.32
2023-05-04T20:02:12.326Z,52.96
2023-05-04T20:04:39.815Z,52.32
2023-05-04T20:07:07.495Z,51.52
2023-05-04T20:09:35.337Z,52.44
2023-05-04T20:12:03.210Z,51.89
2023-05-04T20:14:31.384Z,53.60
2023-05-04T20:17:00.322Z,52.28
2023-05-04T20:19:28.047Z,52.68
2023-05-04T20:21:55.810Z,50.74
2023-05-04T20:24:23.446Z,49.88
2023-05-04T20:26:51.191Z,51.95
2023-05-04T20:29:18.860Z,50.36
2023-05-04T20:31:46.457Z,50.86
2023-05-04T20:34:16.403Z,49.78
2023-05-04T20:36:46.114Z,49.79
2023-05-04T20:39:13.632Z,49.69
2023-05-04T20:41:41.316Z,50.19
2023-05-04T20:44:08.815Z,50.24
2023-05-04T20:46:36.758Z,50.40
2023-05-04T20:49:04.268Z,50.25
2023-05-04T20:51:33.115Z,51.26
2023-05-04T20:54:00.678Z,50.80
2023-05-04T20:56:29.331Z,50.46
2023-05-04T20:58:57.014Z,51.01
2023-05-04T21:01:24.517Z,50.96
2023-05-04T21:03:52.430Z,50.72
2023-05-04T21:06:20.153Z,51.24
2023-05-04T21:08:48.990Z,51.08
2023-05-04T21:11:16.654Z,51.35
2023-05-04T21:13:44.134Z,51.65
2023-05-04T21:16:11.767Z,52.00
2023-05-04T21:18:39.322Z,52.49
2023-05-04T21:21:07.031Z,52.67
2023-05-04T21:23:34.858Z,53.50
2023-05-04T21:26:04.312Z,52.65
2023-05-04T21:28:32.747Z,53.26
2023-05-04T21:31:00.437Z,53.63
2023-05-04T21:33:28.030Z,53.15
2023-05-04T21:35:55.526Z,53.49
2023-05-04T21:38:23.007Z,53.36
2023-05-04T21:40:50.593Z,53.58
2023-05-04T21:43:19.397Z,53.68
2023-05-04T21:45:46.903Z,53.74
2023-05-04T21:48:14.369Z,53.76
2023-05-04T21:50:41.935Z,54.37
2023-05-04T21:53:09.431Z,54.33
2023-05-04T21:55:36.975Z,54.58
2023-05-04T21:58:04.473Z,54.08
2023-05-04T22:00:33.286Z,54.10
2023-05-04T22:03:01.083Z,53.88
2023-05-04T22:05:28.608Z,54.36
2023-05-04T22:07:56.095Z,54.44
2023-05-04T22:10:23.826Z,54.50
2023-05-04T22:12:51.342Z,54.73
2023-05-04T22:15:18.857Z,54.76
2023-05-04T22:17:48.461Z,54.87
2023-05-04T22:20:16.240Z,54.92
2023-05-04T22:22:44.066Z,55.95
2023-05-04T22:25:11.776Z,55.82
2023-05-04T22:27:39.228Z,56.13
2023-05-04T22:30:08.703Z,55.68
2023-05-04T22:32:36.421Z,55.46
2023-05-04T22:35:05.881Z,55.30
2023-05-04T22:37:33.396Z,55.65
2023-05-04T22:40:01.253Z,55.60
2023-05-04T22:42:28.969Z,55.43
2023-05-04T22:44:56.661Z,55.90
2023-05-04T22:47:24.486Z,55.91
2023-05-04T22:49:54.804Z,55.55
2023-05-04T22:52:23.957Z,56.40
2023-05-04T22:54:51.445Z,57.37
2023-05-04T22:57:19.473Z,57.79
2023-05-04T22:59:46.958Z,57.69
2023-05-04T23:02:15.121Z,57.44
2023-05-04T23:04:42.755Z,57.57
2023-05-04T23:07:10.533Z,57.63
2023-05-04T23:09:43.507Z,57.38
2023-05-04T23:12:11.005Z,57.36
2023-05-04T23:14:38.493Z,58.73
2023-05-04T23:17:06.154Z,59.12
2023-05-04T23:19:33.651Z,59.09
2023-05-04T23:22:01.166Z,60.03
2023-05-04T23:24:28.806Z,60.02
2023-05-04T23:26:57.717Z,59.69
2023-05-04T23:29:25.224Z,60.06
2023-05-04T23:31:53.205Z,59.91
2023-05-04T23:34:20.936Z,60.08
2023-05-04T23:36:49.149Z,59.86
2023-05-04T23:39:17.040Z,59.59
2023-05-04T23:41:44.592Z,59.07
2023-05-04T23:44:13.392Z,58.80
2023-05-04T23:46:40.894Z,58.52
2023-05-04T23:49:08.370Z,58.68
2023-05-04T23:51:35.849Z,58.78
2023-05-04T23:54:03.439Z,58.15
2023-05-04T23:56:31.983Z,58.37
2023-05-04T23:58:59.569Z,58.91
